createdAt,value
2017-12-02T00:01:36.726Z,29.25
2017-12-02T00:04:04.283Z,30.60
2017-12-02T00:06:32.625Z,28.08
2017-12-02T00:09:00.199Z,30.95
2017-12-02T00:11:27.740Z,32.78
2017-12-02T00:13:55.309Z,31.33
2017-12-02T00:16:23.631Z,31.73
2017-12-02T00:18:51.210Z,30.00
2017-12-02T00:21:18.926Z,31.98
2017-12-02T00:23:46.526Z,29.85
2017-12-02T00:26:14.283Z,26.70
2017-12-02T00:28:42.630Z,33.88
2017-12-02T00:31:10.177Z,29.33
2017-12-02T00:33:37.741Z,29.73
2017-12-02T00:36:05.339Z,28.75
2017-12-02T00:38:33.689Z,29.73
2017-12-02T00:41:01.291Z,31.33
2017-12-02T00:43:29.646Z,33.40
2017-12-02T00:45:57.197Z,33.08
2017-12-02T00:48:24.785Z,29.58
2017-12-02T00:50:52.341Z,30.55
2017-12-02T00:53:20.690Z,27.90
2017-12-02T00:55:48.358Z,31.55
2017-12-02T00:58:15.919Z,32.72
2017-12-02T01:00:43.489Z,31.35
2017-12-02T01:03:11.797Z,28.48
2017-12-02T01:05:39.446Z,29.67
2017-12-02T01:08:07.821Z,29.50
2017-12-02T01:10:36.166Z,29.85
2017-12-02T01:13:03.725Z,29.58
2017-12-02T01:15:31.437Z,30.55
2017-12-02T01:17:59.770Z,30.95
2017-12-02T01:20:27.342Z,29.73
2017-12-02T01:22:55.689Z,32.00
2017-12-02T01:25:23.242Z,33.17
2017-12-02T01:27:50.817Z,30.05
2017-12-02T01:30:18.393Z,31.33
2017-12-02T01:32:45.969Z,27.70
2017-12-02T01:35:13.558Z,31.75
2017-12-02T01:37:41.907Z,31.42
2017-12-02T01:40:09.487Z,32.58
2017-12-02T01:42:37.073Z,30.62
2017-12-02T01:45:05.474Z,31.55
2017-12-02T01:47:33.936Z,31.65
2017-12-02T01:50:02.266Z,31.52
2017-12-02T01:52:29.852Z,30.52
2017-12-02T01:54:57.421Z,33.08
2017-12-02T01:57:25.741Z,31.05
2017-12-02T01:59:53.313Z,30.50
2017-12-02T02:02:20.895Z,32.13
2017-12-02T02:04:48.522Z,33.92
2017-12-02T02:07:16.096Z,32.13
2017-12-02T02:09:43.674Z,31.77
2017-12-02T02:12:11.414Z,33.10
2017-12-02T02:14:39.022Z,30.15
2017-12-02T02:17:06.613Z,28.70
2017-12-02T02:19:34.192Z,31.00
2017-12-02T02:22:01.806Z,29.55
2017-12-02T02:24:29.389Z,31.75
2017-12-02T02:26:57.769Z,31.45
2017-12-02T02:29:26.095Z,28.83
2017-12-02T02:31:53.670Z,30.15
2017-12-02T02:34:21.261Z,30.05
2017-12-02T02:36:49.592Z,33.00
2017-12-02T02:39:17.170Z,31.45
2017-12-02T02:41:44.741Z,33.33
2017-12-02T02:44:12.303Z,29.65
2017-12-02T02:46:41.997Z,31.55
2017-12-02T02:49:09.573Z,30.52
2017-12-02T02:51:37.136Z,30.60
2017-12-02T02:54:04.777Z,31.83
2017-12-02T02:56:32.352Z,29.52
2017-12-02T02:58:59.897Z,27.55
2017-12-02T03:01:27.481Z,29.40
2017-12-02T03:03:55.806Z,30.83
2017-12-02T03:06:23.393Z,28.60
2017-12-02T03:08:50.977Z,27.33
2017-12-02T03:11:18.553Z,29.55
2017-12-02T03:13:46.113Z,30.42
2017-12-02T03:16:13.775Z,27.73
2017-12-02T03:18:41.332Z,30.50
2017-12-02T03:21:09.833Z,28.98
2017-12-02T03:23:38.149Z,27.15
2017-12-02T03:26:05.698Z,31.25
2017-12-02T03:28:33.275Z,29.98
2017-12-02T03:31:00.834Z,31.52
2017-12-02T03:33:28.402Z,31.65
2017-12-02T03:35:56.157Z,27.05
2017-12-02T03:38:24.066Z,29.92
2017-12-02T03:40:51.606Z,26.08
2017-12-02T03:43:19.737Z,26.98
2017-12-02T03:45:48.059Z,27.08
2017-12-02T03:48:15.618Z,26.50
2017-12-02T03:50:43.176Z,27.30
2017-12-02T03:53:10.715Z,28.50
2017-12-02T03:55:38.908Z,30.90
2017-12-02T03:58:06.542Z,28.10
2017-12-02T04:00:34.082Z,28.15
2017-12-02T04:03:02.422Z,28.15
2017-12-02T04:05:30.163Z,28.40
2017-12-02T04:07:57.825Z,29.20
2017-12-02T04:10:25.371Z,25.77
2017-12-02T04:12:52.918Z,26.45
2017-12-02T04:15:21.231Z,29.83
2017-12-02T04:17:48.754Z,29.23
2017-12-02T04:20:17.079Z,29.55
2017-12-02T04:22:44.649Z,27.40
2017-12-02T04:25:12.304Z,30.37
2017-12-02T04:27:39.843Z,32.08
2017-12-02T04:30:07.385Z,30.52
2017-12-02T04:32:35.065Z,29.15
2017-12-02T04:35:02.633Z,26.62
2017-12-02T04:37:30.201Z,26.27
2017-12-02T04:39:57.815Z,26.80
2017-12-02T04:42:25.385Z,28.45
2017-12-02T04:44:53.739Z,27.70
2017-12-02T04:47:21.309Z,28.25
2017-12-02T04:49:49.622Z,30.08
2017-12-02T04:52:17.169Z,28.15
2017-12-02T04:54:44.761Z,27.58
2017-12-02T04:57:12.294Z,31.08
2017-12-02T04:59:40.649Z,30.02
2017-12-02T05:02:08.197Z,31.10
2017-12-02T05:04:35.752Z,32.15
2017-12-02T05:07:03.389Z,30.17
2017-12-02T05:09:30.969Z,31.50
2017-12-02T05:11:58.496Z,33.33
2017-12-02T05:14:26.110Z,32.15
2017-12-02T05:16:53.803Z,32.75
2017-12-02T05:19:22.125Z,30.02
2017-12-02T05:21:49.674Z,32.70
2017-12-02T05:24:17.233Z,29.33
2017-12-02T05:26:44.799Z,28.50
2017-12-02T05:29:12.358Z,31.23
2017-12-02T05:31:39.921Z,29.17
2017-12-02T05:34:07.619Z,32.40
2017-12-02T05:36:35.941Z,30.10
2017-12-02T05:39:03.485Z,26.75
2017-12-02T05:41:31.846Z,25.67
2017-12-02T05:43:59.483Z,27.67
2017-12-02T05:46:28.048Z,25.65
2017-12-02T05:48:55.750Z,24.87
2017-12-02T05:51:23.301Z,26.77
2017-12-02T05:53:50.875Z,23.35
2017-12-02T05:56:18.433Z,25.50
2017-12-02T05:58:45.984Z,25.08
2017-12-02T06:01:13.555Z,24.08
2017-12-02T06:03:41.094Z,25.92
2017-12-02T06:06:08.658Z,24.05
2017-12-02T06:08:36.210Z,27.55
2017-12-02T06:11:03.794Z,28.95
2017-12-02T06:13:31.364Z,29.23
2017-12-02T06:15:58.903Z,30.08
2017-12-02T06:18:26.480Z,29.90
2017-12-02T06:20:54.141Z,30.40
2017-12-02T06:23:21.836Z,30.30
2017-12-02T06:25:50.138Z,28.12
2017-12-02T06:28:17.711Z,31.10
2017-12-02T06:30:45.382Z,31.35
2017-12-02T06:33:12.954Z,29.10
2017-12-02T06:35:40.519Z,28.55
2017-12-02T06:38:08.101Z,27.95
2017-12-02T06:40:35.679Z,31.80
2017-12-02T06:43:04.001Z,30.20
2017-12-02T06:45:31.581Z,30.27
2017-12-02T06:47:59.159Z,31.17
2017-12-02T06:50:26.746Z,29.37
2017-12-02T06:52:55.061Z,33.67
2017-12-02T06:55:22.740Z,30.15
2017-12-02T06:57:50.329Z,47.17
2017-12-02T07:00:17.868Z,33.10
2017-12-02T07:02:45.468Z,32.35
2017-12-02T07:05:13.006Z,34.70
2017-12-02T07:07:40.598Z,30.20
2017-12-02T07:10:08.938Z,32.42
2017-12-02T07:12:36.499Z,30.33
2017-12-02T07:15:04.207Z,30.52
2017-12-02T07:17:31.757Z,33.50
2017-12-02T07:20:00.088Z,31.50
2017-12-02T07:22:27.638Z,33.83
2017-12-02T07:24:55.190Z,34.67
2017-12-02T07:27:22.813Z,32.95
2017-12-02T07:29:51.297Z,32.35
2017-12-02T07:32:19.602Z,31.85
2017-12-02T07:34:47.173Z,34.25
2017-12-02T07:37:15.714Z,34.83
2017-12-02T07:39:44.025Z,32.85
2017-12-02T07:42:11.582Z,37.78
2017-12-02T07:44:39.130Z,32.63
2017-12-02T07:47:07.460Z,38.40
2017-12-02T07:49:35.007Z,31.55
2017-12-02T07:52:02.710Z,34.85
2017-12-02T07:54:30.441Z,37.72
2017-12-02T07:56:58.137Z,35.22
2017-12-02T07:59:25.684Z,36.03
2017-12-02T08:01:53.241Z,31.73
2017-12-02T08:04:20.809Z,36.17
2017-12-02T08:06:48.350Z,37.45
2017-12-02T08:09:15.902Z,36.60
2017-12-02T08:11:43.472Z,35.03
2017-12-02T08:14:11.040Z,32.58
2017-12-02T08:16:38.621Z,35.08
2017-12-02T08:19:06.180Z,31.05
2017-12-02T08:21:33.748Z,33.40
2017-12-02T08:24:02.067Z,34.30
2017-12-02T08:26:29.654Z,31.33
2017-12-02T08:28:57.210Z,29.30
2017-12-02T08:31:24.802Z,32.40
2017-12-02T08:33:52.395Z,30.95
2017-12-02T08:36:19.980Z,31.40
2017-12-02T08:38:47.631Z,31.08
2017-12-02T08:41:22.471Z,33.33
2017-12-02T08:43:50.024Z,30.48
2017-12-02T08:46:29.516Z,32.22
2017-12-02T08:48:58.879Z,29.48
2017-12-02T08:51:27.371Z,31.17
2017-12-02T08:53:54.970Z,30.55
2017-12-02T08:56:22.594Z,31.87
2017-12-02T08:58:50.139Z,30.80
2017-12-02T09:01:18.782Z,33.72
2017-12-02T09:03:46.323Z,31.27
2017-12-02T09:06:19.371Z,31.65
2017-12-02T09:08:47.105Z,30.73
2017-12-02T09:11:16.786Z,31.62
2017-12-02T09:13:45.118Z,31.48
2017-12-02T09:16:12.732Z,34.28
2017-12-02T09:18:41.466Z,32.55
2017-12-02T09:21:09.078Z,35.47
2017-12-02T09:23:36.930Z,34.50
2017-12-02T09:26:04.548Z,30.17
2017-12-02T09:28:32.185Z,32.33
2017-12-02T09:30:59.935Z,30.05
2017-12-02T09:33:27.781Z,30.50
2017-12-02T09:35:55.416Z,30.17
2017-12-02T09:38:22.998Z,31.87
2017-12-02T09:40:50.589Z,31.05
2017-12-02T09:43:18.863Z,31.30
2017-12-02T09:45:46.463Z,31.73
2017-12-02T09:48:14.041Z,31.02
2017-12-02T09:50:41.598Z,29.87
2017-12-02T09:53:09.298Z,33.03
2017-12-02T09:55:36.851Z,33.55
2017-12-02T09:58:04.458Z,30.92
2017-12-02T10:00:32.020Z,32.72
2017-12-02T10:02:59.602Z,30.73
2017-12-02T10:05:27.190Z,30.98
2017-12-02T10:07:54.737Z,31.12
2017-12-02T10:10:22.369Z,32.80
2017-12-02T10:12:49.972Z,29.70
2017-12-02T10:15:17.589Z,30.20
2017-12-02T10:17:45.152Z,30.05
2017-12-02T10:20:12.800Z,32.25
2017-12-02T10:22:41.291Z,30.77
2017-12-02T10:25:08.994Z,32.97
2017-12-02T10:27:36.655Z,33.83
2017-12-02T10:30:04.275Z,35.17
2017-12-02T10:32:32.635Z,33.20
2017-12-02T10:35:00.406Z,30.48
2017-12-02T10:37:29.077Z,35.83
2017-12-02T10:39:56.694Z,30.88
2017-12-02T10:42:24.275Z,31.52
2017-12-02T10:44:51.928Z,33.20
2017-12-02T10:47:19.503Z,31.95
2017-12-02T10:49:47.073Z,30.40
2017-12-02T10:52:14.622Z,31.60
2017-12-02T10:54:42.174Z,31.00
2017-12-02T10:57:09.861Z,31.87
2017-12-02T10:59:37.467Z,34.00
2017-12-02T11:02:05.045Z,31.65
2017-12-02T11:04:32.613Z,34.97
2017-12-02T11:07:00.442Z,33.60
2017-12-02T11:09:28.980Z,31.60
2017-12-02T11:11:56.552Z,34.45
2017-12-02T11:14:24.182Z,34.75
2017-12-02T11:16:51.920Z,32.20
2017-12-02T11:19:20.269Z,35.67
2017-12-02T11:21:47.854Z,33.10
2017-12-02T11:24:16.271Z,32.22
2017-12-02T11:26:43.793Z,33.40
2017-12-02T11:29:12.209Z,32.60
2017-12-02T11:31:39.769Z,34.97
2017-12-02T11:34:08.928Z,34.13
2017-12-02T11:36:36.499Z,34.30
2017-12-02T11:39:04.181Z,33.17
2017-12-02T11:41:31.744Z,36.90
2017-12-02T11:44:00.543Z,34.60
2017-12-02T11:46:28.130Z,36.17
2017-12-02T11:48:55.777Z,32.83
2017-12-02T11:51:23.414Z,34.92
2017-12-02T11:53:50.998Z,35.95
2017-12-02T11:56:19.351Z,34.53
2017-12-02T11:58:46.947Z,36.88
2017-12-02T12:01:14.510Z,37.28
2017-12-02T12:03:42.073Z,36.55
2017-12-02T12:06:09.634Z,34.85
2017-12-02T12:08:37.222Z,35.33
2017-12-02T12:11:04.808Z,36.42
2017-12-02T12:13:32.426Z,36.20
2017-12-02T12:15:59.994Z,37.85
2017-12-02T12:18:27.560Z,38.00
2017-12-02T12:20:55.185Z,36.95
2017-12-02T12:23:23.521Z,36.65
2017-12-02T12:25:51.362Z,39.97
2017-12-02T12:28:18.939Z,36.97
2017-12-02T12:30:46.572Z,37.78
2017-12-02T12:33:15.348Z,36.45
2017-12-02T12:35:43.685Z,35.95
2017-12-02T12:38:11.324Z,37.53
2017-12-02T12:40:38.931Z,34.83
2017-12-02T12:43:07.109Z,35.78
2017-12-02T12:45:34.821Z,32.10
2017-12-02T12:48:02.445Z,30.15
2017-12-02T12:50:30.995Z,31.73
2017-12-02T12:52:58.988Z,36.08
2017-12-02T12:55:26.580Z,29.63
2017-12-02T12:57:55.005Z,30.73
2017-12-02T13:00:22.550Z,29.83
2017-12-02T13:02:50.125Z,31.75
2017-12-02T13:05:17.687Z,32.25
2017-12-02T13:07:45.272Z,28.85
2017-12-02T13:10:12.826Z,29.92
2017-12-02T13:12:41.306Z,30.88
2017-12-02T13:15:08.883Z,30.95
2017-12-02T13:17:36.461Z,30.23
2017-12-02T13:20:04.818Z,29.52
2017-12-02T13:22:32.387Z,32.65
2017-12-02T13:25:00.765Z,30.48
2017-12-02T13:27:28.327Z,31.25
2017-12-02T13:29:55.900Z,31.95
2017-12-02T13:32:24.237Z,34.80
2017-12-02T13:34:53.426Z,35.78
2017-12-02T13:37:21.021Z,33.50
2017-12-02T13:39:48.599Z,34.60
2017-12-02T13:42:16.158Z,37.67
2017-12-02T13:44:44.478Z,32.72
2017-12-02T13:47:12.086Z,33.78
2017-12-02T13:49:39.633Z,35.75
2017-12-02T13:52:07.202Z,32.65
2017-12-02T13:54:35.634Z,38.55
2017-12-02T13:57:03.204Z,35.25
2017-12-02T13:59:30.753Z,35.58
2017-12-02T14:01:58.381Z,35.03
2017-12-02T14:04:25.990Z,39.10
2017-12-02T14:06:53.605Z,36.53
2017-12-02T14:09:22.060Z,40.78
2017-12-02T14:11:49.724Z,39.08
2017-12-02T14:14:17.359Z,33.60
2017-12-02T14:16:45.030Z,35.67
2017-12-02T14:19:13.199Z,32.60
2017-12-02T14:21:40.783Z,33.40
2017-12-02T14:24:08.331Z,30.60
2017-12-02T14:26:35.908Z,31.27
2017-12-02T14:29:03.541Z,33.88
2017-12-02T14:31:31.180Z,31.40
2017-12-02T14:33:59.575Z,35.20
2017-12-02T14:36:27.288Z,32.05
2017-12-02T14:38:54.838Z,32.75
2017-12-02T14:41:22.444Z,30.08
2017-12-02T14:43:50.946Z,34.03
2017-12-02T14:46:18.554Z,30.23
2017-12-02T14:48:46.129Z,31.58
2017-12-02T14:51:14.474Z,28.30
2017-12-02T14:53:42.064Z,29.20
2017-12-02T14:56:10.356Z,30.15
2017-12-02T14:58:38.457Z,28.08
2017-12-02T15:01:06.801Z,28.75
2017-12-02T15:03:34.375Z,28.60
2017-12-02T15:06:01.952Z,28.50
2017-12-02T15:08:30.279Z,28.02
2017-12-02T15:10:57.866Z,29.12
2017-12-02T15:13:25.440Z,28.45
2017-12-02T15:15:54.247Z,26.80
2017-12-02T15:18:21.943Z,29.42
2017-12-02T15:20:49.510Z,29.27
2017-12-02T15:23:17.111Z,31.02
2017-12-02T15:25:44.686Z,30.17
2017-12-02T15:28:13.017Z,31.58
2017-12-02T15:30:41.692Z,29.00
2017-12-02T15:33:09.300Z,27.48
2017-12-02T15:35:36.876Z,31.50
2017-12-02T15:38:05.285Z,30.58
2017-12-02T15:40:32.955Z,29.48
2017-12-02T15:43:01.248Z,31.17
2017-12-02T15:45:28.821Z,29.73
2017-12-02T15:47:56.510Z,30.45
2017-12-02T15:50:24.888Z,28.70
2017-12-02T15:52:52.660Z,28.98
2017-12-02T15:55:20.240Z,35.13
2017-12-02T15:57:48.843Z,32.85
2017-12-02T16:00:16.487Z,28.92
2017-12-02T16:02:47.150Z,29.92
2017-12-02T16:05:15.749Z,32.25
2017-12-02T16:07:43.410Z,31.33
2017-12-02T16:10:11.891Z,33.13
2017-12-02T16:12:39.569Z,30.35
2017-12-02T16:15:07.167Z,30.98
2017-12-02T16:17:34.830Z,26.08
2017-12-02T16:20:03.338Z,30.85
2017-12-02T16:22:31.883Z,30.12
2017-12-02T16:24:59.462Z,30.88
2017-12-02T16:27:27.977Z,32.63
2017-12-02T16:29:55.679Z,30.42
2017-12-02T16:32:23.445Z,29.65
2017-12-02T16:34:51.119Z,31.12
2017-12-02T16:37:18.691Z,30.08
2017-12-02T16:39:46.323Z,29.55
2017-12-02T16:42:14.733Z,28.20
2017-12-02T16:44:43.144Z,32.53
2017-12-02T16:47:10.738Z,34.05
2017-12-02T16:49:38.386Z,32.15
2017-12-02T16:52:06.004Z,32.90
2017-12-02T16:54:33.614Z,32.10
2017-12-02T16:57:01.472Z,30.77
2017-12-02T16:59:29.108Z,36.50
2017-12-02T17:01:56.722Z,32.63
2017-12-02T17:04:24.312Z,30.17
2017-12-02T17:06:51.907Z,38.40
2017-12-02T17:09:19.556Z,33.20
2017-12-02T17:11:47.946Z,33.67
2017-12-02T17:14:15.538Z,35.58
2017-12-02T17:16:43.125Z,31.45
2017-12-02T17:19:10.751Z,32.22
2017-12-02T17:21:38.316Z,32.90
2017-12-02T17:24:05.899Z,31.30
2017-12-02T17:26:34.286Z,31.17
2017-12-02T17:29:01.919Z,31.12
2017-12-02T17:31:29.487Z,30.90
2017-12-02T17:33:57.047Z,30.45
2017-12-02T17:36:24.669Z,32.28
2017-12-02T17:38:53.020Z,32.90
2017-12-02T17:41:20.720Z,30.30
2017-12-02T17:43:49.059Z,28.90
2017-12-02T17:46:16.644Z,30.62
2017-12-02T17:48:45.222Z,29.20
2017-12-02T17:51:12.797Z,30.77
2017-12-02T17:53:41.161Z,27.33
2017-12-02T17:56:09.558Z,29.20
2017-12-02T17:58:37.895Z,24.27
2017-12-02T18:01:05.554Z,22.50
2017-12-02T18:03:33.217Z,23.20
2017-12-02T18:06:00.816Z,24.02
2017-12-02T18:08:28.937Z,23.25
2017-12-02T18:10:56.522Z,22.75
2017-12-02T18:13:24.122Z,27.25
2017-12-02T18:15:52.467Z,26.40
2017-12-02T18:18:20.084Z,29.17
2017-12-02T18:20:47.685Z,29.70
2017-12-02T18:23:15.284Z,26.65
2017-12-02T18:25:42.838Z,28.12
2017-12-02T18:28:10.476Z,29.37
2017-12-02T18:30:38.065Z,26.67
2017-12-02T18:33:05.626Z,31.77
2017-12-02T18:35:34.021Z,30.75
2017-12-02T18:38:01.625Z,27.77
2017-12-02T18:40:29.234Z,30.37
2017-12-02T18:42:56.829Z,30.37
2017-12-02T18:45:24.475Z,29.65
2017-12-02T18:47:52.842Z,30.05
2017-12-02T18:50:21.330Z,28.85
2017-12-02T18:52:49.785Z,26.60
2017-12-02T18:55:17.493Z,32.63
2017-12-02T18:57:45.081Z,32.05
2017-12-02T19:00:12.703Z,29.33
2017-12-02T19:02:41.038Z,29.90
2017-12-02T19:05:08.625Z,35.88
2017-12-02T19:10:10.258Z,32.63
2017-12-02T19:12:37.858Z,33.35
2017-12-02T19:15:05.467Z,31.02
2017-12-02T19:17:33.103Z,32.90
2017-12-02T19:20:01.515Z,31.95
2017-12-02T19:22:29.311Z,33.30
2017-12-02T19:24:56.887Z,30.58
2017-12-02T19:27:24.530Z,34.72
2017-12-02T19:29:52.277Z,30.27
2017-12-02T19:32:19.894Z,31.05
2017-12-02T19:34:47.466Z,30.20
2017-12-02T19:37:15.801Z,31.12
2017-12-02T19:39:43.405Z,30.17
2017-12-02T19:42:11.725Z,33.95
2017-12-02T19:44:39.384Z,29.55
2017-12-02T19:47:06.951Z,28.75
2017-12-02T19:49:34.571Z,29.42
2017-12-02T19:52:03.212Z,30.20
2017-12-02T19:54:31.629Z,28.95
2017-12-02T19:56:59.203Z,29.42
2017-12-02T19:59:27.563Z,29.50
2017-12-02T20:01:55.168Z,28.90
2017-12-02T20:04:22.754Z,31.70
2017-12-02T20:06:50.378Z,26.55
2017-12-02T20:09:18.757Z,32.38
2017-12-02T20:11:47.083Z,28.10
2017-12-02T20:14:14.658Z,27.87
2017-12-02T20:16:42.256Z,26.70
2017-12-02T20:19:09.894Z,27.15
2017-12-02T20:21:37.469Z,32.03
2017-12-02T20:24:05.086Z,27.00
2017-12-02T20:26:32.711Z,33.53
2017-12-02T20:29:00.331Z,29.42
2017-12-02T20:31:27.919Z,32.03
2017-12-02T20:33:56.239Z,32.45
2017-12-02T20:36:23.846Z,29.92
2017-12-02T20:38:52.808Z,31.25
2017-12-02T20:41:20.409Z,26.62
2017-12-02T20:43:48.749Z,28.95
2017-12-02T20:46:16.318Z,29.42
2017-12-02T20:48:43.910Z,29.75
2017-12-02T20:51:11.521Z,28.45
2017-12-02T20:53:39.300Z,28.83
2017-12-02T20:56:06.948Z,26.92
2017-12-02T20:58:34.535Z,27.67
2017-12-02T21:01:02.203Z,25.83
2017-12-02T21:03:29.808Z,28.62
2017-12-02T21:05:58.299Z,26.85
2017-12-02T21:08:26.248Z,26.67
2017-12-02T21:10:54.931Z,27.75
2017-12-02T21:13:22.827Z,26.05
2017-12-02T21:15:51.701Z,23.42
2017-12-02T21:18:23.724Z,25.10
2017-12-02T21:20:51.288Z,26.30
2017-12-02T21:23:18.998Z,25.65
2017-12-02T21:25:46.685Z,25.45
2017-12-02T21:28:15.380Z,26.23
2017-12-02T21:30:43.256Z,27.10
2017-12-02T21:33:11.661Z,28.30
2017-12-02T21:35:39.459Z,26.20
2017-12-02T21:38:10.091Z,27.13
2017-12-02T21:40:38.554Z,26.87
2017-12-02T21:43:07.016Z,28.17
2017-12-02T21:45:34.615Z,30.62
2017-12-02T21:48:02.286Z,28.80
2017-12-02T21:50:30.610Z,25.58
2017-12-02T21:52:58.302Z,29.87
2017-12-02T21:55:26.113Z,28.38
2017-12-02T21:57:54.141Z,28.83
2017-12-02T22:00:21.953Z,26.87
2017-12-02T22:02:49.557Z,28.15
2017-12-02T22:05:17.253Z,26.12
2017-12-02T22:07:45.575Z,26.65
2017-12-02T22:10:13.305Z,25.30
2017-12-02T22:12:40.926Z,25.90
2017-12-02T22:15:08.695Z,27.35
2017-12-02T22:17:36.628Z,26.23
2017-12-02T22:20:04.200Z,25.12
2017-12-02T22:22:31.975Z,22.13
2017-12-02T22:24:59.754Z,24.08
2017-12-02T22:27:27.352Z,24.25
2017-12-02T22:29:55.045Z,23.15
2017-12-02T22:32:22.682Z,23.58
2017-12-02T22:34:51.074Z,21.27
2017-12-02T22:37:18.680Z,20.58
2017-12-02T22:39:46.611Z,20.55
2017-12-02T22:42:14.163Z,22.50
2017-12-02T22:44:42.059Z,21.90
2017-12-02T22:47:09.741Z,23.40
2017-12-02T22:49:37.330Z,23.70
2017-12-02T22:52:05.034Z,24.63
2017-12-02T22:54:32.888Z,20.42
2017-12-02T22:57:00.552Z,20.65
2017-12-02T22:59:28.260Z,22.17
2017-12-02T23:01:55.830Z,22.52
2017-12-02T23:04:24.240Z,21.52
2017-12-02T23:06:51.870Z,22.10
2017-12-02T23:09:19.507Z,21.20
2017-12-02T23:11:47.129Z,22.05
2017-12-02T23:14:14.921Z,20.75
2017-12-02T23:16:42.796Z,21.45
2017-12-02T23:19:10.481Z,23.17
2017-12-02T23:21:38.109Z,21.23
2017-12-02T23:24:05.697Z,21.30
2017-12-02T23:26:33.348Z,20.35
2017-12-02T23:29:01.969Z,20.55
2017-12-02T23:31:30.671Z,22.95
2017-12-02T23:33:58.859Z,24.65
2017-12-02T23:36:26.475Z,20.60
2017-12-02T23:38:54.160Z,21.75
2017-12-02T23:41:21.746Z,21.67
2017-12-02T23:43:50.140Z,21.80
2017-12-02T23:46:17.754Z,23.27
2017-12-02T23:48:45.426Z,21.40
2017-12-02T23:51:13.044Z,21.10
2017-12-02T23:53:41.870Z,21.83
2017-12-02T23:56:10.340Z,20.33
2017-12-02T23:58:38.257Z,19.12
